Annfield Plain, United Kingdom
Current Conditions -  °F | °C
As of 6:20 AM on Friday 19 Dec 2014 (Local Time) from EGNT Reporting Station
Clear Clear  
Wind Chill: 33°   Ceiling: Unl
Heat Index: 43°   Visibility: 6mi
Dew Point: 34°   Wind: 24mph
Humidity: 70%   Direction: 270°W
Pressure: 29.53"   Gusts: 37mph
Location:  54.86°N, 1.74°W
Report Text: EGNT 190620Z 27021G32KT CAVOK 06/01 Q1000
Loading
Personal Weather Stations






























Interactive Weather Map New forecast layout! Learn more

10-Day Weather Forecast

Advertisements
Track Severe Weather on mobile